Terminal Aerodrome Forecast
Issued by NWS

Home | Current Version | Previous Version | Text Only | Print | Product List | Glossary On
Versions: 1 2 3 4 5 6 7 8 9 10 11 12 13 14
629
FTUS43 KDTX 242338
TAFMBS
TAF
KMBS 242338Z 2500/2524 23006KT P6SM BKN250
     FM251400 25008KT P6SM BKN080
     FM252000 VRB05KT P6SM SCT050 BKN120=

USA.gov is the U.S. government's official web portal to all federal, state and local government web resources and services.